Geelong, Australia
Current Conditions -  °F | °C
As of 10:30 AM on Sunday 23 Nov 2014 (Local Time) from YMAV Reporting Station
Scattered Clouds Scattered Clouds  
Wind Chill: 70°   Ceiling: Unl
Heat Index: 70°   Visibility: 6mi
Dew Point: 52°   Wind: 6mph
Humidity: 53%   Direction: 180°S
Pressure: 29.88"   Gusts: NA
Location:  38.15°S, 144.36°E
Report Text: YMAV 222330Z AUTO 18005KT 110V250 9999 // SCT096 21/11 Q1012
Loading
Personal Weather Stations






























Interactive Weather Map New forecast layout! Learn more

10-Day Weather Forecast

Advertisements
Track Severe Weather on mobile